Time;durP1;ratioP1;P1;durP2;ratioP2;P2;SDS_P1;SDS_P2;PMS_P1;PMS_P2;Temp;Humidity;BMP_temperature;BMP_pressure;BME280_temperature;BME280_humidity;BME280_pressure;Samples;Min_cycle;Max_cycle;Signal;HPM_P1;HPM_P2
2021/03/27 00:00:37;;;;;;;24.27;14.35;;;11.40;99.90;;;;;;5047308;28;20430;-69
2021/03/27 00:03:27;;;;;;;16.27;14.15;;;11.40;99.90;;;;;;5057742;28;20046;-70
2021/03/27 00:06:16;;;;;;;17.58;14.23;;;11.30;99.90;;;;;;5054822;28;20602;-69
2021/03/27 00:08:53;;;;;;;17.17;13.65;;;11.30;99.90;;;;;;5054932;28;20049;-69
2021/03/27 00:11:51;;;;;;;16.45;14.38;;;11.20;99.90;;;;;;5058265;28;20407;-69
2021/03/27 00:14:33;;;;;;;19.33;14.32;;;11.20;99.90;;;;;;5045487;28;20041;-69
2021/03/27 00:17:14;;;;;;;;;;;11.10;99.90;;;;;;5046610;28;20049;-69
2021/03/27 00:19:53;;;;;;;20.65;17.80;;;11.00;99.90;;;;;;5053902;28;19925;-69
2021/03/27 00:22:30;;;;;;;15.73;13.98;;;11.00;99.90;;;;;;5052499;28;20072;-70
2021/03/27 00:25:41;;;;;;;17.60;14.50;;;11.00;99.90;;;;;;5048595;28;20129;-70
2021/03/27 00:28:34;;;;;;;15.45;13.85;;;11.00;99.90;;;;;;4988559;28;20042;-69
2021/03/27 00:31:03;;;;;;;17.98;14.45;;;11.00;99.90;;;;;;4992399;28;20056;-69
2021/03/27 00:33:36;;;;;;;18.98;13.88;;;11.00;99.90;;;;;;4995356;28;20562;-70
2021/03/27 00:36:13;;;;;;;15.88;14.30;;;11.00;99.90;;;;;;4973154;28;20150;-69
2021/03/27 00:38:47;;;;;;;15.63;14.02;;;11.00;99.90;;;;;;4998122;28;20539;-69
2021/03/27 00:41:23;;;;;;;18.95;14.57;;;11.00;99.90;;;;;;4992275;28;20050;-69
2021/03/27 00:43:58;;;;;;;17.25;14.95;;;11.00;99.90;;;;;;4992006;28;20133;-69
2021/03/27 00:46:25;;;;;;;15.20;13.60;;;11.10;99.90;;;;;;4992542;28;20050;-69
2021/03/27 00:49:04;;;;;;;16.00;14.30;;;11.00;99.90;;;;;;4991131;28;20451;-70
2021/03/27 00:51:43;;;;;;;15.77;14.05;;;11.00;99.90;;;;;;4997092;28;20053;-69
2021/03/27 00:54:24;;;;;;;16.20;14.45;;;11.10;99.90;;;;;;4988807;28;20082;-70
2021/03/27 00:57:13;;;;;;;15.70;13.85;;;11.10;99.90;;;;;;4997951;28;20543;-69
2021/03/27 00:59:54;;;;;;;20.08;14.32;;;11.10;99.90;;;;;;4976342;28;20404;-69
2021/03/27 01:02:21;;;;;;;16.92;13.73;;;11.10;99.90;;;;;;4991359;28;20050;-69
2021/03/27 01:04:49;;;;;;;17.67;14.32;;;11.10;99.90;;;;;;5046750;28;20418;-69
2021/03/27 01:07:19;;;;;;;14.95;13.40;;;11.10;99.90;;;;;;5044342;28;20040;-70
2021/03/27 01:10:00;;;;;;;18.42;14.10;;;11.00;99.90;;;;;;5051502;28;20060;-70
2021/03/27 01:12:32;;;;;;;16.70;13.90;;;11.10;99.90;;;;;;5046247;28;20045;-69
2021/03/27 01:15:03;;;;;;;14.88;13.32;;;11.00;99.90;;;;;;5043834;28;20045;-69
2021/03/27 01:17:33;;;;;;;15.77;13.55;;;11.10;99.90;;;;;;5053112;28;20048;-70
2021/03/27 01:20:23;;;;;;;26.58;14.60;;;11.10;99.90;;;;;;5051117;28;20051;-69
2021/03/27 01:22:51;;;;;;;19.67;14.00;;;11.20;99.90;;;;;;5060584;28;20048;-69
2021/03/27 01:25:30;;;;;;;15.30;13.82;;;11.20;99.90;;;;;;5050412;28;20495;-69
2021/03/27 01:28:30;;;;;;;15.10;13.50;;;11.20;99.90;;;;;;5053229;28;20048;-69
2021/03/27 01:31:05;;;;;;;15.93;13.77;;;11.20;99.90;;;;;;5050546;28;20078;-70
2021/03/27 01:34:03;;;;;;;16.25;14.32;;;11.20;99.90;;;;;;5050605;28;20095;-68
2021/03/27 01:37:04;;;;;;;15.57;14.05;;;11.20;99.90;;;;;;5050006;28;20059;-70
2021/03/27 01:40:05;;;;;;;15.13;13.52;;;11.30;99.90;;;;;;5046545;28;20044;-70
2021/03/27 01:42:47;;;;;;;15.32;13.80;;;11.30;99.90;;;;;;5053086;28;20048;-70
2021/03/27 01:45:32;;;;;;;22.35;13.85;;;11.30;99.90;;;;;;5050298;28;20049;-70
2021/03/27 01:48:23;;;;;;;16.42;13.55;;;11.20;99.90;;;;;;5051736;28;20060;-68
2021/03/27 01:51:02;;;;;;;15.90;14.23;;;11.10;99.90;;;;;;5041760;28;20495;-69
2021/03/27 01:53:43;;;;;;;15.90;13.70;;;11.20;99.90;;;;;;5038328;28;20059;-69
2021/03/27 01:56:23;;;;;;;16.67;14.82;;;11.10;99.90;;;;;;5053090;28;20057;-68
2021/03/27 01:59:09;;;;;;;15.68;13.88;;;11.10;99.90;;;;;;5049903;28;20067;-69
2021/03/27 02:02:01;;;;;;;16.00;13.85;;;11.10;99.90;;;;;;5036668;28;20059;-69
2021/03/27 02:04:30;;;;;;;16.92;13.65;;;11.20;99.90;;;;;;5044756;28;20041;-68
2021/03/27 02:07:18;;;;;;;17.92;13.40;;;11.20;99.90;;;;;;5048974;28;20539;-69
2021/03/27 02:10:11;;;;;;;16.77;13.88;;;11.20;99.90;;;;;;5042386;28;20053;-70
2021/03/27 02:13:11;;;;;;;14.55;13.05;;;11.20;99.90;;;;;;5048302;28;20045;-69
2021/03/27 02:16:09;;;;;;;14.88;13.27;;;11.20;99.90;;;;;;5019151;28;20063;-70
2021/03/27 02:19:16;;;;;;;15.35;13.75;;;11.30;99.90;;;;;;5040291;28;20099;-70
2021/03/27 02:22:16;;;;;;;14.30;12.80;;;11.30;99.90;;;;;;5048049;28;20049;-70
2021/03/27 02:24:58;;;;;;;14.85;12.95;;;11.30;99.90;;;;;;5049369;28;20426;-69
2021/03/27 02:27:49;;;;;;;17.27;13.77;;;11.30;99.90;;;;;;5048959;28;20071;-68
2021/03/27 02:30:25;;;;;;;15.85;13.13;;;11.40;99.90;;;;;;5050357;28;20059;-69
2021/03/27 02:33:32;;;;;;;18.05;13.82;;;11.40;99.90;;;;;;5040442;28;20064;-69
2021/03/27 02:36:29;;;;;;;18.02;12.55;;;11.50;99.90;;;;;;5003101;28;20057;-69
2021/03/27 02:39:02;;;;;;;15.23;13.48;;;11.50;99.90;;;;;;5038473;28;20495;-70
2021/03/27 02:41:53;;;;;;;15.32;12.82;;;11.50;99.90;;;;;;5050716;28;20148;-69
2021/03/27 02:44:35;;;;;;;14.40;12.60;;;11.50;99.90;;;;;;5037783;28;20475;-70
2021/03/27 02:47:26;;;;;;;14.70;12.85;;;11.60;99.90;;;;;;5045179;28;20064;-70
2021/03/27 02:50:14;;;;;;;13.50;12.20;;;11.60;99.90;;;;;;5049034;28;20107;-68
2021/03/27 02:53:13;;;;;;;14.55;12.77;;;11.60;99.90;;;;;;5048440;28;20415;-69
2021/03/27 02:55:58;;;;;;;14.93;12.38;;;11.50;99.90;;;;;;5050234;28;20052;-69
2021/03/27 02:58:31;;;;;;;13.43;12.05;;;11.50;99.90;;;;;;5047303;28;20055;-68
2021/03/27 03:01:07;;;;;;;12.75;11.55;;;11.50;99.90;;;;;;5040501;28;20053;-70
2021/03/27 03:03:57;;;;;;;14.00;11.90;;;11.50;99.90;;;;;;5032744;28;20045;-69
2021/03/27 03:06:34;;;;;;;13.07;11.60;;;11.50;99.90;;;;;;5050628;28;20049;-70
2021/03/27 03:09:12;;;;;;;13.32;11.77;;;11.40;99.90;;;;;;5049431;28;20071;-69
2021/03/27 03:12:02;;;;;;;12.43;11.18;;;11.40;99.90;;;;;;5050618;28;20497;-71
2021/03/27 03:14:40;;;;;;;13.60;11.27;;;11.50;99.90;;;;;;5044579;28;20045;-70
2021/03/27 03:17:33;;;;;;;13.25;11.18;;;11.40;99.90;;;;;;5049467;28;20415;-70
2021/03/27 03:20:18;;;;;;;12.32;10.55;;;11.40;99.90;;;;;;5048679;28;20052;-71
2021/03/27 03:22:57;;;;;;;12.90;9.95;;;11.30;99.90;;;;;;5037130;28;20053;-70
2021/03/27 03:25:29;;;;;;;11.23;10.23;;;11.40;99.90;;;;;;5037145;28;20424;-69
2021/03/27 03:28:21;;;;;;;12.45;10.60;;;11.40;99.90;;;;;;5048644;28;20136;-69
2021/03/27 03:31:11;;;;;;;11.15;10.05;;;11.40;99.90;;;;;;5035838;28;20059;-68
2021/03/27 03:33:51;;;;;;;12.40;10.35;;;11.40;99.90;;;;;;5034051;28;20140;-70
2021/03/27 03:36:31;;;;;;;11.82;10.48;;;11.40;99.90;;;;;;5045166;28;20056;-69
2021/03/27 03:39:14;;;;;;;11.57;9.68;;;11.40;99.90;;;;;;5048048;28;20049;-69
2021/03/27 03:41:56;;;;;;;15.02;9.90;;;11.40;99.90;;;;;;5048516;28;20132;-69
2021/03/27 03:44:51;;;;;;;11.75;9.65;;;11.40;99.90;;;;;;5041319;28;20048;-68
2021/03/27 03:47:40;;;;;;;13.32;9.93;;;11.40;99.90;;;;;;5035865;28;20492;-68
2021/03/27 03:50:26;;;;;;;10.77;9.65;;;11.40;99.90;;;;;;5041783;28;20124;-69
2021/03/27 03:53:13;;;;;;;12.30;9.55;;;11.40;99.90;;;;;;5029397;28;20053;-68
2021/03/27 03:55:59;;;;;;;10.68;9.57;;;11.40;99.90;;;;;;5040389;28;20052;-69
2021/03/27 03:58:36;;;;;;;11.50;9.70;;;11.40;99.90;;;;;;5050577;28;20124;-69
2021/03/27 04:01:07;;;;;;;10.68;9.63;;;11.40;99.90;;;;;;5068407;28;20059;-69
2021/03/27 04:04:01;;;;;;;10.00;9.07;;;11.40;99.90;;;;;;5053877;28;20053;-68
2021/03/27 04:06:31;;;;;;;10.43;9.43;;;11.50;99.90;;;;;;5051077;28;20053;-68
2021/03/27 04:09:11;;;;;;;10.05;9.05;;;11.40;99.90;;;;;;5053530;28;20105;-71
2021/03/27 04:12:02;;;;;;;9.75;8.85;;;11.40;99.90;;;;;;5053604;28;20065;-69
2021/03/27 04:14:49;;;;;;;11.82;8.82;;;11.40;99.90;;;;;;5052423;28;20120;-68
2021/03/27 04:17:52;;;;;;;9.77;8.20;;;11.30;99.90;;;;;;5048679;28;20055;-69
2021/03/27 04:20:53;;;;;;;9.45;7.95;;;11.30;99.90;;;;;;5048675;28;20411;-69
2021/03/27 04:23:50;;;;;;;8.88;8.00;;;11.30;99.90;;;;;;5053385;28;20073;-68
2021/03/27 04:26:26;;;;;;;8.00;7.25;;;11.30;99.90;;;;;;5052976;28;20049;-69
2021/03/27 04:29:18;;;;;;;8.48;7.68;;;11.30;99.90;;;;;;5053887;28;20076;-68
2021/03/27 04:32:14;;;;;;;10.90;7.68;;;11.20;99.90;;;;;;5051641;28;20408;-70
2021/03/27 04:35:10;;;;;;;9.60;7.60;;;11.20;99.90;;;;;;5024849;28;20049;-69
2021/03/27 04:38:08;;;;;;;9.07;7.28;;;11.20;99.90;;;;;;5052571;28;20522;-69
2021/03/27 04:40:42;;;;;;;9.30;7.07;;;11.20;99.90;;;;;;5050700;28;20045;-71
2021/03/27 04:43:22;;;;;;;9.43;8.00;;;11.10;99.90;;;;;;5051959;28;20041;-70
2021/03/27 04:46:13;;;;;;;7.97;7.13;;;11.20;99.90;;;;;;5044593;28;20407;-70
2021/03/27 04:48:52;;;;;;;9.23;6.85;;;11.10;99.90;;;;;;5050403;28;20049;-69
2021/03/27 04:51:19;;;;;;;9.88;6.80;;;11.10;99.90;;;;;;5050078;28;20609;-70
2021/03/27 04:54:09;;;;;;;7.85;6.80;;;11.00;99.90;;;;;;5052738;28;20057;-69
2021/03/27 04:56:50;;;;;;;9.45;6.70;;;11.00;99.90;;;;;;5051298;28;20497;-68
2021/03/27 04:59:23;;;;;;;7.40;6.55;;;10.90;99.90;;;;;;5051819;28;20048;-68
2021/03/27 05:01:56;;;;;;;;;;;10.90;99.90;;;;;;5049375;28;20051;-68
2021/03/27 05:04:35;;;;;;;8.32;6.28;;;10.90;99.90;;;;;;5050757;28;19979;-70
2021/03/27 05:07:19;;;;;;;8.35;7.53;;;10.80;99.90;;;;;;5050661;28;20052;-70
2021/03/27 05:10:18;;;;;;;8.93;7.40;;;10.70;99.90;;;;;;5051764;28;20053;-71
2021/03/27 05:13:15;;;;;;;7.70;6.15;;;10.70;99.90;;;;;;5038978;28;20045;-71
2021/03/27 05:15:53;;;;;;;8.05;6.20;;;10.50;99.90;;;;;;5049143;28;20064;-70
2021/03/27 05:19:00;;;;;;;8.40;6.25;;;10.40;99.90;;;;;;5050199;28;20059;-70
2021/03/27 05:21:36;;;;;;;8.23;6.05;;;10.30;99.90;;;;;;5029047;28;20049;-68
2021/03/27 05:24:03;;;;;;;8.35;6.30;;;10.20;99.90;;;;;;5050911;28;20051;-68
2021/03/27 05:27:13;;;;;;;8.18;5.97;;;10.20;99.90;;;;;;5044420;28;20084;-70
2021/03/27 05:30:08;;;;;;;8.18;5.60;;;10.00;99.90;;;;;;5023666;28;20046;-68
2021/03/27 05:32:43;;;;;;;6.88;5.32;;;9.90;99.90;;;;;;5049790;28;20045;-68
2021/03/27 05:35:27;;;;;;;8.88;5.85;;;9.80;99.90;;;;;;5052910;28;20053;-70
2021/03/27 05:38:07;;;;;;;7.40;5.38;;;9.70;99.90;;;;;;5051020;28;20064;-68
2021/03/27 05:40:39;;;;;;;6.13;4.63;;;9.60;99.90;;;;;;5051759;28;20055;-72
2021/03/27 05:43:12;;;;;;;8.93;4.75;;;9.60;99.90;;;;;;5049397;28;20045;-72
2021/03/27 05:45:57;;;;;;;;;;;9.60;99.90;;;;;;5042464;28;20049;-72
2021/03/27 05:48:47;;;;;;;6.43;4.60;;;9.50;99.90;;;;;;5049674;28;19932;-68
2021/03/27 05:51:38;;;;;;;8.90;4.20;;;9.40;99.90;;;;;;5051142;28;20124;-70
2021/03/27 05:54:10;;;;;;;6.35;4.25;;;9.40;99.90;;;;;;5040966;28;20060;-70
2021/03/27 05:56:55;;;;;;;6.63;4.40;;;9.40;99.90;;;;;;5050322;28;20049;-69
2021/03/27 05:59:42;;;;;;;4.72;3.85;;;9.40;99.90;;;;;;5049270;28;20056;-71
2021/03/27 06:02:32;;;;;;;5.65;4.40;;;9.40;99.90;;;;;;5049421;28;20052;-70
2021/03/27 06:05:39;;;;;;;5.75;4.22;;;9.40;99.90;;;;;;5049001;28;20457;-70
2021/03/27 06:08:46;;;;;;;8.13;4.05;;;9.40;99.90;;;;;;5043122;28;20059;-68
2021/03/27 06:11:47;;;;;;;6.03;3.97;;;9.40;99.90;;;;;;5041495;28;20063;-68
2021/03/27 06:14:39;;;;;;;5.13;4.32;;;9.50;99.90;;;;;;5039759;28;20546;-67
2021/03/27 06:17:19;;;;;;;6.22;4.00;;;9.50;99.90;;;;;;5062317;28;20063;-68
2021/03/27 06:20:13;;;;;;;4.50;3.47;;;9.50;99.90;;;;;;5050553;28;20053;-67
2021/03/27 06:22:57;;;;;;;7.40;3.90;;;9.50;99.90;;;;;;5050044;28;20048;-71
2021/03/27 06:25:39;;;;;;;5.63;3.92;;;9.50;99.90;;;;;;5050952;28;20119;-68
2021/03/27 06:28:15;;;;;;;5.80;4.18;;;9.60;99.90;;;;;;5041002;28;20561;-67
2021/03/27 06:30:42;;;;;;;4.82;3.83;;;9.60;99.90;;;;;;5050562;28;20473;-69
2021/03/27 06:33:29;;;;;;;5.88;4.43;;;9.60;99.90;;;;;;5039630;28;20099;-68
2021/03/27 06:36:02;;;;;;;7.40;4.47;;;9.70;99.90;;;;;;5049080;28;20048;-68
2021/03/27 06:38:59;;;;;;;4.28;3.85;;;9.70;99.90;;;;;;5035630;28;20391;-70
2021/03/27 06:41:44;;;;;;;5.53;4.38;;;9.60;99.90;;;;;;5045475;28;20506;-69
2021/03/27 06:44:22;;;;;;;4.80;4.07;;;9.50;99.90;;;;;;5048097;28;20053;-69
2021/03/27 06:47:10;;;;;;;6.85;4.63;;;9.40;99.90;;;;;;5032132;28;20054;-72
2021/03/27 06:49:43;;;;;;;6.22;4.28;;;9.30;99.90;;;;;;5041671;28;20044;-68
2021/03/27 06:52:42;;;;;;;7.03;4.30;;;9.30;99.90;;;;;;5030985;28;20053;-70
2021/03/27 06:55:32;;;;;;;5.82;4.30;;;9.30;99.90;;;;;;5044661;28;20447;-69
2021/03/27 06:58:19;;;;;;;7.50;4.85;;;9.20;99.90;;;;;;5050078;28;20045;-68
2021/03/27 07:01:14;;;;;;;5.70;4.57;;;9.00;99.90;;;;;;5048813;28;20041;-68
2021/03/27 07:04:18;;;;;;;7.10;4.53;;;9.00;99.90;;;;;;4969657;28;20047;-70
2021/03/27 07:07:12;;;;;;;5.97;4.63;;;9.00;99.90;;;;;;4959644;28;20526;-68
2021/03/27 07:09:38;;;;;;;4.93;4.45;;;8.90;99.90;;;;;;4970217;28;20061;-68
2021/03/27 07:12:25;;;;;;;5.68;4.70;;;8.80;99.90;;;;;;4963835;28;20057;-70
2021/03/27 07:15:16;;;;;;;4.93;4.40;;;8.70;99.90;;;;;;4969387;28;20425;-70
2021/03/27 07:18:05;;;;;;;4.72;4.30;;;8.60;99.90;;;;;;4947907;28;20051;-69
2021/03/27 07:20:35;;;;;;;4.80;4.10;;;8.50;99.90;;;;;;4954935;28;20490;-70
2021/03/27 07:23:20;;;;;;;4.50;4.07;;;8.30;99.90;;;;;;4962819;28;20525;-70
2021/03/27 07:26:05;;;;;;;6.22;5.30;;;8.40;99.90;;;;;;4966501;28;20134;-70
2021/03/27 07:28:49;;;;;;;4.90;4.50;;;8.20;99.90;;;;;;4959876;28;20051;-69
2021/03/27 07:31:24;;;;;;;4.50;4.10;;;8.20;99.90;;;;;;4963508;28;20058;-70
2021/03/27 07:34:07;;;;;;;4.22;3.83;;;8.10;99.90;;;;;;4971546;28;20502;-70
2021/03/27 07:36:57;;;;;;;4.85;3.63;;;8.00;99.90;;;;;;4973606;28;20043;-69
2021/03/27 07:40:07;;;;;;;4.05;3.67;;;7.80;99.90;;;;;;4952801;28;20050;-70
2021/03/27 07:42:59;;;;;;;3.67;3.38;;;7.70;99.90;;;;;;4984483;28;20074;-71
2021/03/27 07:46:06;;;;;;;4.13;3.72;;;7.60;99.90;;;;;;4989032;28;20050;-70
2021/03/27 07:49:16;;;;;;;3.90;3.50;;;7.50;99.90;;;;;;4968509;28;20050;-70
2021/03/27 07:52:17;;;;;;;4.32;3.92;;;7.50;99.90;;;;;;4984436;28;20050;-68
2021/03/27 07:55:25;;;;;;;4.05;3.65;;;7.60;99.90;;;;;;4985561;28;20051;-68
2021/03/27 07:58:11;;;;;;;4.53;4.00;;;7.80;99.90;;;;;;4966873;28;20053;-69
2021/03/27 08:01:16;;;;;;;4.82;3.80;;;7.80;99.90;;;;;;4983341;28;20436;-70
2021/03/27 08:03:57;;;;;;;5.25;4.30;;;8.00;99.90;;;;;;4976793;28;20054;-72
2021/03/27 08:06:52;;;;;;;5.57;3.90;;;8.30;99.90;;;;;;4977806;28;20054;-69
2021/03/27 08:09:50;;;;;;;4.90;4.50;;;8.60;99.90;;;;;;4983016;28;20485;-68
2021/03/27 08:12:23;;;;;;;5.30;4.90;;;8.70;99.90;;;;;;4985537;28;20058;-69
2021/03/27 08:15:08;;;;;;;5.65;5.15;;;8.60;99.90;;;;;;4979615;28;20058;-70
2021/03/27 08:17:51;;;;;;;5.65;5.15;;;8.40;99.90;;;;;;4974844;28;20138;-70
2021/03/27 08:20:32;;;;;;;8.13;5.60;;;8.20;99.90;;;;;;5041773;28;20057;-70
2021/03/27 08:23:25;;;;;;;5.93;5.30;;;8.30;99.90;;;;;;5045574;28;20079;-70
2021/03/27 08:26:06;;;;;;;6.28;5.68;;;8.40;99.90;;;;;;5053011;28;20053;-69
2021/03/27 08:28:49;;;;;;;6.82;6.13;;;8.60;99.90;;;;;;5044302;28;20450;-71
2021/03/27 08:31:18;;;;;;;7.80;5.68;;;8.60;99.90;;;;;;5045916;28;20083;-67
2021/03/27 08:33:56;;;;;;;6.25;5.70;;;8.60;99.90;;;;;;5035496;28;20057;-69
2021/03/27 08:36:46;;;;;;;6.53;6.05;;;8.60;99.90;;;;;;5040127;28;20045;-71
2021/03/27 08:39:40;;;;;;;7.00;6.47;;;8.60;99.90;;;;;;5032736;28;20140;-70
2021/03/27 08:42:10;;;;;;;6.75;6.07;;;8.60;99.90;;;;;;5035079;28;20543;-69
2021/03/27 08:45:14;;;;;;;6.25;5.70;;;8.80;99.90;;;;;;5038580;28;20056;-68
2021/03/27 08:47:51;;;;;;;8.35;6.10;;;8.70;99.90;;;;;;5035447;28;20519;-70
2021/03/27 08:50:36;;;;;;;6.18;5.70;;;8.60;99.90;;;;;;5047091;28;20046;-68
2021/03/27 08:53:50;;;;;;;6.22;5.60;;;8.60;99.90;;;;;;5034597;28;20045;-70
2021/03/27 08:56:36;;;;;;;6.45;5.90;;;8.90;99.90;;;;;;5047090;28;20091;-70
2021/03/27 08:59:27;;;;;;;6.40;5.80;;;9.10;99.90;;;;;;5035517;28;20042;-69
2021/03/27 09:02:15;;;;;;;6.15;5.65;;;9.10;99.90;;;;;;5036921;28;20048;-70
2021/03/27 09:05:09;;;;;;;6.53;6.03;;;9.20;99.90;;;;;;5045166;28;20056;-70
2021/03/27 09:08:20;;;;;;;7.03;6.43;;;9.20;99.90;;;;;;5045507;28;20051;-68
2021/03/27 09:11:19;;;;;;;6.65;6.05;;;9.40;99.90;;;;;;5031259;28;20075;-68
2021/03/27 09:14:14;;;;;;;6.60;6.00;;;9.30;99.90;;;;;;4988265;28;20105;-69
2021/03/27 09:17:11;;;;;;;6.80;6.20;;;9.10;99.90;;;;;;4982927;28;20061;-71
2021/03/27 09:19:40;;;;;;;7.18;6.28;;;9.20;99.90;;;;;;4986795;28;20269;-69
2021/03/27 09:22:42;;;;;;;6.65;6.15;;;9.40;99.90;;;;;;4982256;28;20047;-68
2021/03/27 09:25:31;;;;;;;7.50;6.90;;;9.30;99.90;;;;;;4984671;28;20047;-70
2021/03/27 09:28:16;;;;;;;7.20;6.60;;;9.00;99.90;;;;;;4981632;28;20520;-67
2021/03/27 09:30:53;;;;;;;7.40;6.70;;;9.40;99.90;;;;;;4985706;28;20126;-69
2021/03/27 09:33:35;;;;;;;7.00;6.45;;;9.30;99.90;;;;;;4990845;28;20050;-70
2021/03/27 09:36:26;;;;;;;6.72;6.22;;;9.10;99.90;;;;;;4985738;28;20521;-69
2021/03/27 09:39:11;;;;;;;6.63;6.03;;;8.80;99.90;;;;;;4982156;28;20060;-69
2021/03/27 09:42:13;;;;;;;7.30;6.70;;;9.10;99.90;;;;;;4984096;28;20042;-69
2021/03/27 09:44:52;;;;;;;7.30;6.65;;;9.20;99.90;;;;;;4976912;28;20047;-68
2021/03/27 09:47:51;;;;;;;7.53;6.85;;;9.50;99.90;;;;;;4989226;28;20061;-70
2021/03/27 09:50:26;;;;;;;8.05;7.25;;;9.40;99.90;;;;;;5036210;28;20041;-68
2021/03/27 09:53:06;;;;;;;7.82;7.07;;;9.30;99.90;;;;;;5048521;28;20040;-66
2021/03/27 09:56:14;;;;;;;7.47;6.88;;;9.20;99.90;;;;;;5051996;28;20098;-71
2021/03/27 09:59:11;;;;;;;7.72;7.22;;;9.10;99.90;;;;;;5048559;28;20052;-70
2021/03/27 10:01:41;;;;;;;8.15;7.22;;;9.20;99.90;;;;;;5045641;28;20146;-69
2021/03/27 10:04:31;;;;;;;7.90;7.20;;;9.30;99.90;;;;;;5052468;28;20052;-69
2021/03/27 10:07:16;;;;;;;7.75;7.05;;;9.40;99.90;;;;;;5050620;28;20043;-70
2021/03/27 10:09:50;;;;;;;7.40;6.82;;;9.40;99.90;;;;;;5049792;28;20049;-70
2021/03/27 10:12:28;;;;;;;7.72;7.03;;;9.50;99.90;;;;;;5049058;28;20045;-70
2021/03/27 10:15:17;;;;;;;7.55;6.93;;;9.60;99.90;;;;;;5052076;28;20048;-69
2021/03/27 10:17:50;;;;;;;7.55;6.78;;;9.70;99.90;;;;;;5031625;28;20042;-70
2021/03/27 10:20:23;;;;;;;8.48;7.00;;;9.60;99.90;;;;;;5048036;28;20057;-70
2021/03/27 10:23:03;;;;;;;7.47;6.88;;;9.50;99.90;;;;;;5046805;28;20049;-69
2021/03/27 10:26:02;;;;;;;7.47;6.78;;;9.10;99.90;;;;;;5046315;28;20057;-67
2021/03/27 10:28:35;;;;;;;7.75;7.10;;;9.20;99.90;;;;;;5046040;28;20489;-67
2021/03/27 10:31:17;;;;;;;7.00;6.40;;;9.30;99.90;;;;;;5051130;28;20045;-70
2021/03/27 10:34:02;;;;;;;6.90;6.30;;;9.30;99.90;;;;;;5052222;28;20136;-69
2021/03/27 10:36:56;;;;;;;7.07;6.47;;;9.40;99.90;;;;;;5047195;28;20495;-69
2021/03/27 10:39:41;;;;;;;7.57;6.88;;;9.90;99.90;;;;;;5036756;28;20511;-69
2021/03/27 10:42:36;;;;;;;7.57;6.10;;;10.00;99.90;;;;;;5034173;28;20107;-67
2021/03/27 10:45:44;;;;;;;7.35;6.75;;;10.30;99.90;;;;;;5044918;28;20051;-73
2021/03/27 10:48:21;;;;;;;7.57;6.53;;;10.50;99.90;;;;;;5044821;28;20056;-68
2021/03/27 10:51:13;;;;;;;7.68;6.40;;;10.40;99.90;;;;;;5041931;28;20049;-69
2021/03/27 10:53:54;;;;;;;7.80;7.10;;;10.80;99.90;;;;;;5049884;28;20075;-67
2021/03/27 10:56:50;;;;;;;7.53;6.80;;;10.80;99.90;;;;;;5049646;28;20091;-67
2021/03/27 10:59:30;;;;;;;7.57;6.88;;;11.00;99.90;;;;;;5044260;28;20759;-69
2021/03/27 11:02:29;;;;;;;7.07;6.47;;;11.30;99.90;;;;;;5047609;28;20061;-68
2021/03/27 11:05:19;;;;;;;7.35;6.75;;;11.80;99.90;;;;;;5051608;28;20060;-68
2021/03/27 11:08:07;;;;;;;7.28;6.68;;;11.40;99.90;;;;;;5040499;28;20041;-68
2021/03/27 11:10:52;;;;;;;7.30;6.80;;;11.20;99.90;;;;;;5044074;28;20049;-68
2021/03/27 11:13:33;;;;;;;8.25;7.53;;;11.40;99.90;;;;;;5053213;28;20048;-68
2021/03/27 11:16:19;;;;;;;11.18;7.55;;;11.60;99.90;;;;;;5047414;28;20053;-71
2021/03/27 11:19:10;;;;;;;7.65;6.80;;;11.70;99.90;;;;;;5043858;28;20598;-71
2021/03/27 11:21:37;;;;;;;8.48;7.68;;;11.60;99.90;;;;;;5053568;28;20099;-71
2021/03/27 11:24:03;;;;;;;7.30;6.60;;;11.60;99.90;;;;;;5051282;28;20053;-69
2021/03/27 11:27:01;;;;;;;9.18;6.82;;;11.60;99.90;;;;;;5051790;28;20479;-72
2021/03/27 11:29:52;;;;;;;7.80;7.10;;;11.90;99.90;;;;;;5054340;28;20045;-72
2021/03/27 11:32:52;;;;;;;8.43;7.65;;;11.70;99.90;;;;;;5051109;28;20155;-68
2021/03/27 11:35:51;;;;;;;7.00;6.50;;;12.20;99.40;;;;;;5048937;28;20049;-71
2021/03/27 11:38:43;;;;;;;6.93;6.32;;;12.10;98.40;;;;;;5050116;28;20048;-69
2021/03/27 11:41:19;;;;;;;7.65;6.90;;;12.50;98.30;;;;;;5054176;28;20399;-69
2021/03/27 11:43:57;;;;;;;7.07;6.53;;;12.70;97.90;;;;;;5042666;28;20095;-69
2021/03/27 11:46:44;;;;;;;7.47;6.53;;;12.50;96.50;;;;;;5046318;28;20049;-68
2021/03/27 11:49:32;;;;;;;7.20;6.60;;;12.40;97.00;;;;;;5054022;28;20578;-71
2021/03/27 11:52:12;;;;;;;7.53;6.55;;;12.90;96.50;;;;;;5053412;28;20069;-70
2021/03/27 11:54:49;;;;;;;7.88;7.07;;;13.30;97.30;;;;;;5050953;28;20092;-69
2021/03/27 11:57:47;;;;;;;7.70;7.00;;;13.10;95.70;;;;;;5053944;28;20044;-69
2021/03/27 12:01:02;;;;;;;7.57;6.57;;;12.80;95.80;;;;;;5049212;28;20068;-69
2021/03/27 12:03:50;;;;;;;7.80;6.68;;;12.50;94.90;;;;;;5034356;28;20084;-67
2021/03/27 12:06:32;;;;;;;7.30;6.60;;;12.30;95.40;;;;;;5033899;28;20056;-68
2021/03/27 12:09:16;;;;;;;7.00;6.22;;;12.50;93.90;;;;;;5042164;28;20048;-69
2021/03/27 12:11:52;;;;;;;7.53;6.88;;;12.30;94.10;;;;;;5048058;28;20056;-70
2021/03/27 12:14:44;;;;;;;8.80;6.85;;;11.70;95.60;;;;;;5055867;28;20459;-68
2021/03/27 12:17:37;;;;;;;7.40;6.80;;;11.50;95.70;;;;;;5041253;28;20049;-71
2021/03/27 12:20:51;;;;;;;9.85;7.43;;;11.40;96.10;;;;;;4972374;28;20074;-70
2021/03/27 12:23:39;;;;;;;7.20;6.70;;;11.80;96.10;;;;;;4954398;28;20055;-71
2021/03/27 12:26:19;;;;;;;7.90;7.07;;;12.40;95.00;;;;;;4936486;29;20043;-69
2021/03/27 12:28:53;;;;;;;7.43;6.82;;;12.60;93.90;;;;;;4965575;28;20527;-68
2021/03/27 12:31:48;;;;;;;6.95;6.32;;;12.10;93.70;;;;;;4943558;28;20050;-70
2021/03/27 12:34:30;;;;;;;7.32;6.60;;;11.90;94.50;;;;;;4953071;28;20626;-71
2021/03/27 12:37:04;;;;;;;7.00;6.30;;;12.50;94.30;;;;;;4946974;29;20056;-71
2021/03/27 12:39:45;;;;;;;7.00;6.50;;;12.30;93.50;;;;;;4938596;28;20062;-69
2021/03/27 12:42:23;;;;;;;8.35;6.80;;;12.90;94.30;;;;;;4933209;29;20152;-68
2021/03/27 12:44:58;;;;;;;14.07;6.85;;;12.70;93.50;;;;;;4943978;29;20051;-68
2021/03/27 12:47:54;;;;;;;7.75;7.00;;;12.00;93.30;;;;;;4949404;28;20418;-72
2021/03/27 12:50:31;;;;;;;6.90;6.35;;;11.60;93.80;;;;;;4944413;29;20051;-70
2021/03/27 12:53:17;;;;;;;7.78;7.13;;;11.80;93.00;;;;;;4947583;28;20055;-69
2021/03/27 12:55:46;;;;;;;7.75;6.95;;;12.40;92.30;;;;;;4945088;29;20051;-68
2021/03/27 12:58:30;;;;;;;7.43;6.82;;;12.60;91.60;;;;;;4981062;28;20122;-68
2021/03/27 13:01:15;;;;;;;7.82;6.75;;;12.90;91.50;;;;;;5050928;28;20156;-70
2021/03/27 13:03:56;;;;;;;8.18;7.45;;;13.20;91.30;;;;;;5051828;28;20487;-72
2021/03/27 13:06:50;;;;;;;7.50;6.78;;;14.20;89.20;;;;;;5052833;28;20049;-70
2021/03/27 13:09:19;;;;;;;7.70;7.00;;;13.40;89.00;;;;;;5044822;28;20057;-72
2021/03/27 13:11:49;;;;;;;7.55;6.88;;;13.60;88.40;;;;;;5036611;28;20057;-73
2021/03/27 13:14:37;;;;;;;7.63;6.93;;;12.90;88.30;;;;;;5054381;28;20041;-71
2021/03/27 13:17:42;;;;;;;7.70;6.80;;;13.60;88.80;;;;;;5045744;28;20049;-68
2021/03/27 13:20:32;;;;;;;7.80;7.00;;;14.20;83.50;;;;;;5050995;28;20456;-73
2021/03/27 13:23:17;;;;;;;7.63;7.03;;;13.20;85.80;;;;;;5040066;28;20400;-73
2021/03/27 13:25:49;;;;;;;8.75;6.60;;;12.40;87.70;;;;;;5047948;28;20484;-66
2021/03/27 13:28:30;;;;;;;;;;;12.80;89.20;;;;;;5051126;28;20041;-65
2021/03/27 13:31:18;;;;;;;7.60;7.00;;;14.80;87.60;;;;;;5052185;28;19927;-66
2021/03/27 13:34:09;;;;;;;10.85;7.88;;;17.10;80.10;;;;;;5052528;28;20528;-64
2021/03/27 13:36:58;;;;;;;7.50;6.80;;;19.10;73.10;;;;;;5051620;28;20045;-66
2021/03/27 13:39:34;;;;;;;7.45;6.70;;;17.90;71.00;;;;;;5036363;28;20052;-65
2021/03/27 13:47:13;;;;;;;8.10;7.40;;;18.50;68.50;;;;;;5080746;28;20418;-68
2021/03/27 13:49:57;;;;;;;8.40;7.60;;;19.60;67.10;;;;;;5073386;28;20041;-65
2021/03/27 13:52:34;;;;;;;7.95;7.35;;;18.90;65.60;;;;;;5060835;28;20406;-69
2021/03/27 13:55:17;;;;;;;19.23;8.02;;;17.90;66.50;;;;;;5075136;28;20560;-69
2021/03/27 13:57:56;;;;;;;15.50;7.32;;;15.40;68.30;;;;;;5067021;28;20430;-66
2021/03/27 14:00:30;;;;;;;13.13;8.05;;;14.60;71.80;;;;;;5074093;28;20049;-68
2021/03/27 14:03:34;;;;;;;8.80;7.90;;;14.80;71.70;;;;;;5069750;28;20411;-65
2021/03/27 14:06:17;;;;;;;9.10;8.30;;;13.40;73.70;;;;;;5041530;28;20056;-65
2021/03/27 14:09:14;;;;;;;8.40;7.55;;;12.60;75.80;;;;;;5070806;28;20056;-68
2021/03/27 14:12:00;;;;;;;8.60;7.80;;;12.10;77.60;;;;;;5069028;28;20064;-69
2021/03/27 14:14:37;;;;;;;9.07;8.40;;;11.60;79.20;;;;;;5068620;28;20487;-66
2021/03/27 14:17:12;;;;;;;8.85;7.90;;;11.60;80.50;;;;;;5062234;28;20140;-67
2021/03/27 14:20:06;;;;;;;8.88;8.05;;;11.10;82.40;;;;;;5066191;28;20076;-67
2021/03/27 14:22:58;;;;;;;8.52;7.70;;;11.00;83.30;;;;;;5073023;28;20052;-67
2021/03/27 14:25:37;;;;;;;11.25;7.93;;;10.70;85.80;;;;;;5062281;28;20045;-66